createdAt,value
2023-06-04T00:01:16.285Z,42.05
2023-06-04T00:03:44.550Z,41.90
2023-06-04T00:06:11.210Z,41.82
2023-06-04T00:08:37.857Z,41.76
2023-06-04T00:11:04.573Z,41.70
2023-06-04T00:13:56.495Z,42.03
2023-06-04T00:16:23.063Z,41.90
2023-06-04T00:18:49.741Z,41.91
2023-06-04T00:21:16.555Z,41.88
2023-06-04T00:23:43.850Z,42.11
2023-06-04T00:26:10.677Z,41.99
2023-06-04T00:28:37.247Z,42.05
2023-06-04T00:31:07.105Z,41.88
2023-06-04T00:33:33.839Z,41.59
2023-06-04T00:36:00.639Z,41.78
2023-06-04T00:38:28.237Z,41.70
2023-06-04T00:40:54.758Z,41.57
2023-06-04T00:43:21.446Z,41.61
2023-06-04T00:45:48.054Z,41.48
2023-06-04T00:48:14.637Z,41.83
2023-06-04T00:50:41.179Z,41.77
2023-06-04T00:53:08.222Z,41.65
2023-06-04T00:55:35.389Z,41.72
2023-06-04T00:58:02.224Z,41.74
2023-06-04T01:00:28.809Z,41.68
2023-06-04T01:02:59.734Z,41.95
2023-06-04T01:05:48.991Z,42.29
2023-06-04T01:08:16.358Z,42.53
2023-06-04T01:10:53.509Z,42.28
2023-06-04T01:13:20.070Z,42.15
2023-06-04T01:15:46.658Z,42.23
2023-06-04T01:18:28.789Z,42.39
2023-06-04T01:21:19.407Z,41.86
2023-06-04T01:23:59.560Z,42.04
2023-06-04T01:26:28.488Z,41.91
2023-06-04T01:28:57.427Z,41.92
2023-06-04T01:31:25.518Z,42.35
2023-06-04T01:33:59.892Z,41.67
2023-06-04T01:36:26.713Z,41.94
2023-06-04T01:38:53.414Z,41.74
2023-06-04T01:41:20.030Z,41.74
2023-06-04T01:43:46.903Z,41.87
2023-06-04T01:46:13.837Z,42.22
2023-06-04T01:48:41.857Z,41.85
2023-06-04T01:51:08.680Z,41.95
2023-06-04T01:53:36.033Z,42.17
2023-06-04T01:56:02.872Z,42.23
2023-06-04T01:58:30.257Z,42.60
2023-06-04T02:01:17.997Z,42.53
2023-06-04T02:04:04.906Z,42.48
2023-06-04T02:06:51.764Z,42.74
2023-06-04T02:09:38.594Z,42.75
2023-06-04T02:12:25.280Z,43.04
2023-06-04T02:15:12.036Z,43.09
2023-06-04T02:17:43.836Z,42.96
2023-06-04T02:20:12.326Z,43.32
2023-06-04T02:22:39.091Z,42.69
2023-06-04T02:25:06.521Z,43.62
2023-06-04T02:27:33.049Z,44.03
2023-06-04T02:29:59.732Z,43.95
2023-06-04T02:32:26.317Z,43.59
2023-06-04T02:34:53.012Z,44.13
2023-06-04T02:37:19.726Z,44.25
2023-06-04T02:39:46.337Z,44.14
2023-06-04T02:42:13.435Z,43.96
2023-06-04T02:44:40.075Z,44.11
2023-06-04T02:47:07.208Z,43.83
2023-06-04T02:49:33.814Z,43.95
2023-06-04T02:52:00.470Z,43.66
2023-06-04T02:54:27.334Z,44.19
2023-06-04T02:56:54.516Z,43.89
2023-06-04T02:59:21.111Z,44.62
2023-06-04T03:01:49.487Z,44.24
2023-06-04T03:04:16.727Z,43.91
2023-06-04T03:06:47.265Z,44.26
2023-06-04T03:09:14.318Z,44.98
2023-06-04T03:11:40.883Z,44.70
2023-06-04T03:14:08.837Z,45.16
2023-06-04T03:16:35.304Z,44.48
2023-06-04T03:19:02.456Z,44.83
2023-06-04T03:21:30.115Z,44.72
2023-06-04T03:23:57.594Z,44.90
2023-06-04T03:26:24.286Z,45.09
2023-06-04T03:28:51.317Z,45.01
2023-06-04T03:31:20.158Z,45.70
2023-06-04T03:33:46.968Z,45.43
2023-06-04T03:36:14.505Z,44.75
2023-06-04T03:38:41.110Z,43.92
2023-06-04T03:41:08.704Z,43.84
2023-06-04T03:43:36.655Z,44.16
2023-06-04T03:46:06.441Z,44.32
2023-06-04T03:48:33.121Z,44.63
2023-06-04T03:50:59.810Z,44.68
2023-06-04T03:53:26.797Z,44.91
2023-06-04T03:55:53.572Z,44.95
2023-06-04T03:58:22.488Z,45.22
2023-06-04T04:00:50.852Z,44.79
2023-06-04T04:03:17.402Z,44.99
2023-06-04T04:05:45.135Z,44.71
2023-06-04T04:08:13.077Z,45.06
2023-06-04T04:10:39.878Z,45.11
2023-06-04T04:13:06.503Z,44.99
2023-06-04T04:15:36.556Z,44.96
2023-06-04T04:18:04.901Z,45.68
2023-06-04T04:20:32.718Z,46.22
2023-06-04T04:23:04.278Z,46.42
2023-06-04T04:25:33.633Z,46.93
2023-06-04T04:28:03.216Z,47.30
2023-06-04T04:30:30.345Z,47.30
2023-06-04T04:32:57.605Z,47.67
2023-06-04T04:35:33.568Z,47.41
2023-06-04T04:38:00.165Z,48.32
2023-06-04T04:40:26.861Z,48.53
2023-06-04T04:42:55.481Z,48.81
2023-06-04T04:45:22.379Z,49.40
2023-06-04T04:47:53.114Z,50.10
2023-06-04T04:50:20.507Z,49.71
2023-06-04T04:52:47.064Z,50.03
2023-06-04T04:55:14.038Z,51.11
2023-06-04T04:57:41.265Z,50.39
2023-06-04T05:00:10.296Z,49.63
2023-06-04T05:02:39.245Z,49.64
2023-06-04T05:05:07.698Z,50.08
2023-06-04T05:07:34.344Z,49.96
2023-06-04T05:10:01.303Z,49.19
2023-06-04T05:12:33.105Z,49.84
2023-06-04T05:15:01.955Z,49.63
2023-06-04T05:17:31.274Z,48.97
2023-06-04T05:20:05.427Z,49.21
2023-06-04T05:22:37.273Z,50.29
2023-06-04T05:25:04.834Z,50.43
2023-06-04T05:27:32.629Z,50.18
2023-06-04T05:29:59.681Z,49.91
2023-06-04T05:32:29.536Z,50.49
2023-06-04T05:34:58.576Z,50.71
2023-06-04T05:37:28.279Z,50.80
2023-06-04T05:39:56.668Z,50.88
2023-06-04T05:42:24.871Z,50.54
2023-06-04T05:44:51.591Z,49.45
2023-06-04T05:47:19.910Z,49.59
2023-06-04T05:49:47.032Z,48.91
2023-06-04T05:52:13.895Z,48.08
2023-06-04T05:54:42.118Z,48.44
2023-06-04T05:57:08.820Z,47.75
2023-06-04T05:59:35.708Z,47.36
2023-06-04T06:02:04.879Z,47.77
2023-06-04T06:04:32.090Z,48.55
2023-06-04T06:06:58.986Z,48.59
2023-06-04T06:09:25.614Z,48.98
2023-06-04T06:11:52.465Z,49.47
2023-06-04T06:14:19.086Z,49.25
2023-06-04T06:16:46.318Z,49.52
2023-06-04T06:19:13.476Z,48.83
2023-06-04T06:21:40.150Z,49.71
2023-06-04T06:24:06.908Z,48.78
2023-06-04T06:26:34.297Z,48.45
2023-06-04T06:29:02.647Z,48.43
2023-06-04T06:31:30.380Z,48.14
2023-06-04T06:33:56.895Z,47.90
2023-06-04T06:36:23.518Z,47.78
2023-06-04T06:38:50.105Z,47.85
2023-06-04T06:41:16.712Z,48.37
2023-06-04T06:43:43.295Z,47.13
2023-06-04T06:46:09.761Z,46.79
2023-06-04T06:48:37.162Z,46.91
2023-06-04T06:51:03.865Z,46.63
2023-06-04T06:53:30.523Z,46.27
2023-06-04T06:55:57.335Z,47.00
2023-06-04T06:58:24.427Z,45.94
2023-06-04T07:00:51.344Z,46.42
2023-06-04T07:03:18.188Z,45.35
2023-06-04T07:05:44.896Z,44.77
2023-06-04T07:08:11.453Z,45.56
2023-06-04T07:10:38.110Z,44.85
2023-06-04T07:13:04.789Z,45.28
2023-06-04T07:15:31.355Z,44.48
2023-06-04T07:17:58.141Z,44.88
2023-06-04T07:20:24.740Z,43.68
2023-06-04T07:22:51.381Z,44.35
2023-06-04T07:25:17.932Z,44.22
2023-06-04T07:27:44.561Z,43.78
2023-06-04T07:30:11.275Z,44.22
2023-06-04T07:32:37.820Z,40.97
2023-06-04T07:35:04.701Z,42.43
2023-06-04T07:37:31.561Z,43.23
2023-06-04T07:39:58.385Z,40.53
2023-06-04T07:42:24.994Z,39.72
2023-06-04T07:44:51.640Z,39.00
2023-06-04T07:47:18.182Z,39.30
2023-06-04T07:49:58.105Z,38.42
2023-06-04T07:52:28.260Z,38.22
2023-06-04T07:54:54.864Z,38.29
2023-06-04T07:57:21.376Z,37.74
2023-06-04T07:59:47.981Z,36.77
2023-06-04T08:02:16.045Z,37.52
2023-06-04T08:04:42.823Z,36.40
2023-06-04T08:07:09.599Z,35.77
2023-06-04T08:09:36.194Z,36.02
2023-06-04T08:12:02.920Z,35.62
2023-06-04T08:14:29.481Z,36.76
2023-06-04T08:16:56.034Z,34.44
2023-06-04T08:19:22.676Z,35.53
2023-06-04T08:21:49.370Z,35.18
2023-06-04T08:24:16.392Z,34.06
2023-06-04T08:26:42.870Z,34.04
2023-06-04T08:29:09.730Z,33.56
2023-06-04T08:31:36.382Z,33.00
2023-06-04T08:34:06.337Z,32.28
2023-06-04T08:36:33.820Z,33.07
2023-06-04T08:39:00.421Z,32.71
2023-06-04T08:41:38.167Z,32.42
2023-06-04T08:44:07.278Z,32.53
2023-06-04T08:46:34.081Z,31.31
2023-06-04T08:49:03.540Z,31.66
2023-06-04T08:51:34.815Z,31.56
2023-06-04T08:54:01.485Z,30.04
2023-06-04T08:56:29.823Z,30.19
2023-06-04T08:59:02.723Z,29.66
2023-06-04T09:01:30.814Z,30.46
2023-06-04T09:03:59.269Z,31.27
2023-06-04T09:06:29.336Z,29.11
2023-06-04T09:08:59.798Z,29.13
2023-06-04T09:11:29.188Z,27.97
2023-06-04T09:14:00.544Z,27.19
2023-06-04T09:16:27.113Z,27.12
2023-06-04T09:18:54.464Z,26.79
2023-06-04T09:21:21.143Z,26.55
2023-06-04T09:23:48.446Z,28.11
2023-06-04T09:26:15.321Z,27.38
2023-06-04T09:28:43.104Z,27.39
2023-06-04T09:31:19.142Z,25.55
2023-06-04T09:33:46.851Z,25.23
2023-06-04T09:36:13.827Z,25.62
2023-06-04T09:38:40.837Z,26.25
2023-06-04T09:41:14.930Z,27.11
2023-06-04T09:43:41.817Z,27.30
2023-06-04T09:46:16.177Z,27.14
2023-06-04T09:48:45.387Z,27.27
2023-06-04T09:51:16.266Z,27.65
2023-06-04T09:53:43.063Z,27.72
2023-06-04T09:56:12.042Z,26.55
2023-06-04T09:58:39.699Z,27.22
2023-06-04T10:01:07.383Z,26.02
2023-06-04T10:03:36.972Z,25.69
2023-06-04T10:06:05.530Z,25.53
2023-06-04T10:08:33.787Z,25.62
2023-06-04T10:11:02.601Z,26.05
2023-06-04T10:13:39.874Z,25.68
2023-06-04T10:16:09.572Z,24.99
2023-06-04T10:18:40.624Z,24.14
2023-06-04T10:21:09.154Z,23.96
2023-06-04T10:23:36.859Z,23.91
2023-06-04T10:26:03.539Z,25.31
2023-06-04T10:28:30.619Z,25.23
2023-06-04T10:30:57.235Z,25.69
2023-06-04T10:33:27.420Z,24.71
2023-06-04T10:35:54.733Z,25.15
2023-06-04T10:38:23.280Z,26.25
2023-06-04T10:40:50.495Z,25.61
2023-06-04T10:43:17.276Z,26.42
2023-06-04T10:45:44.254Z,24.93
2023-06-04T10:48:13.057Z,24.63
2023-06-04T10:50:53.706Z,25.09
2023-06-04T10:53:21.182Z,25.60
2023-06-04T10:55:49.582Z,25.13
2023-06-04T10:58:17.026Z,25.61
2023-06-04T11:00:50.260Z,25.74
2023-06-04T11:03:18.079Z,25.81
2023-06-04T11:05:48.708Z,26.34
2023-06-04T11:08:16.045Z,25.04
2023-06-04T11:10:46.388Z,25.16
2023-06-04T11:13:13.639Z,24.72
2023-06-04T11:15:49.835Z,24.78
2023-06-04T11:18:21.152Z,23.14
2023-06-04T11:20:50.967Z,23.66
2023-06-04T11:23:18.587Z,23.86
2023-06-04T11:25:46.361Z,22.86
2023-06-04T11:28:19.177Z,23.97
2023-06-04T11:31:03.263Z,23.28
2023-06-04T11:33:31.099Z,22.76
2023-06-04T11:35:57.740Z,23.87
2023-06-04T11:38:24.352Z,23.12
2023-06-04T11:41:01.610Z,22.11
2023-06-04T11:43:29.759Z,22.47
2023-06-04T11:45:56.573Z,23.66
2023-06-04T11:48:23.770Z,22.71
2023-06-04T11:50:50.753Z,21.79
2023-06-04T11:53:17.677Z,21.82
2023-06-04T11:55:44.450Z,21.61
2023-06-04T11:58:11.459Z,22.21
2023-06-04T12:00:39.157Z,22.31
2023-06-04T12:03:07.588Z,20.94
2023-06-04T12:05:34.748Z,20.73
2023-06-04T12:08:10.496Z,22.25
2023-06-04T12:10:44.896Z,22.78
2023-06-04T12:13:12.111Z,22.39
2023-06-04T12:15:38.985Z,22.32
2023-06-04T12:18:06.257Z,20.73
2023-06-04T12:20:38.356Z,21.66
2023-06-04T12:23:07.230Z,21.06
2023-06-04T12:25:35.242Z,20.29
2023-06-04T12:28:04.113Z,22.38
2023-06-04T12:30:39.085Z,20.82
2023-06-04T12:33:05.946Z,19.73
2023-06-04T12:35:34.276Z,20.47
2023-06-04T12:38:04.367Z,20.36
2023-06-04T12:40:31.605Z,21.11
2023-06-04T12:42:58.319Z,21.23
2023-06-04T12:45:25.061Z,21.15
2023-06-04T12:47:51.574Z,21.15
2023-06-04T12:50:22.166Z,21.01
2023-06-04T12:52:49.241Z,20.92
2023-06-04T12:55:16.123Z,20.36
2023-06-04T12:57:45.233Z,19.55
2023-06-04T13:00:12.223Z,20.26
2023-06-04T13:02:38.968Z,19.75
2023-06-04T13:05:05.675Z,18.95
2023-06-04T13:07:32.298Z,19.78
2023-06-04T13:09:58.756Z,20.69
2023-06-04T13:12:25.579Z,18.68
2023-06-04T13:14:52.134Z,19.19
2023-06-04T13:17:22.488Z,19.78
2023-06-04T13:19:50.800Z,19.32
2023-06-04T13:22:17.609Z,18.22
2023-06-04T13:24:44.099Z,17.43
2023-06-04T13:27:10.767Z,18.02
2023-06-04T13:29:37.432Z,17.64
2023-06-04T13:32:04.805Z,17.21
2023-06-04T13:34:33.245Z,17.90
2023-06-04T13:37:00.156Z,18.37
2023-06-04T13:39:26.873Z,18.57
2023-06-04T13:41:53.614Z,17.89
2023-06-04T13:44:26.936Z,17.10
2023-06-04T13:46:54.308Z,18.17
2023-06-04T13:49:21.620Z,16.94
2023-06-04T13:51:48.357Z,17.13
2023-06-04T13:54:14.822Z,17.20
2023-06-04T13:56:41.739Z,17.04
2023-06-04T13:59:08.246Z,17.48
2023-06-04T14:01:34.945Z,17.47
2023-06-04T14:04:01.842Z,17.25
2023-06-04T14:06:28.502Z,16.65
2023-06-04T14:08:55.249Z,16.67
2023-06-04T14:11:21.780Z,16.66
2023-06-04T14:13:48.651Z,16.77
2023-06-04T14:16:15.849Z,17.14
2023-06-04T14:18:42.604Z,16.29
2023-06-04T14:21:09.642Z,16.84
2023-06-04T14:23:36.429Z,15.46
2023-06-04T14:26:03.191Z,16.48
2023-06-04T14:28:29.725Z,16.68
2023-06-04T14:30:56.652Z,15.92
2023-06-04T14:33:23.105Z,15.51
2023-06-04T14:35:49.839Z,16.17
2023-06-04T14:38:17.472Z,17.69
2023-06-04T14:40:47.066Z,16.88
2023-06-04T14:43:13.997Z,16.30
2023-06-04T14:45:41.860Z,15.22
2023-06-04T14:48:15.309Z,15.27
2023-06-04T14:50:44.291Z,15.38
2023-06-04T14:53:12.674Z,15.38
2023-06-04T14:55:40.366Z,14.90
2023-06-04T14:58:07.060Z,15.91
2023-06-04T15:00:34.099Z,15.73
2023-06-04T15:03:04.400Z,15.46
2023-06-04T15:05:34.787Z,14.83
2023-06-04T15:08:04.531Z,15.15
2023-06-04T15:10:31.627Z,15.03
2023-06-04T15:12:58.179Z,15.30
2023-06-04T15:15:24.967Z,15.42
2023-06-04T15:17:51.705Z,15.15
2023-06-04T15:20:18.875Z,14.86
2023-06-04T15:22:45.513Z,14.97
2023-06-04T15:25:12.051Z,13.94
2023-06-04T15:27:39.524Z,15.74
2023-06-04T15:30:07.448Z,15.65
2023-06-04T15:32:35.120Z,15.22
2023-06-04T15:35:02.635Z,15.50
2023-06-04T15:37:29.179Z,15.15
2023-06-04T15:39:58.752Z,15.18
2023-06-04T15:42:25.705Z,14.87
2023-06-04T15:44:52.307Z,14.43
2023-06-04T15:47:18.914Z,14.80
2023-06-04T15:49:45.597Z,14.30
2023-06-04T15:52:12.563Z,14.91
2023-06-04T15:54:46.353Z,14.65
2023-06-04T15:57:14.295Z,15.04
2023-06-04T15:59:41.940Z,14.60
2023-06-04T16:02:08.871Z,14.64
2023-06-04T16:04:35.740Z,13.34
2023-06-04T16:07:03.070Z,14.13
2023-06-04T16:09:30.008Z,13.70
2023-06-04T16:11:56.813Z,13.74
2023-06-04T16:14:23.818Z,13.32
2023-06-04T16:16:50.458Z,13.71
2023-06-04T16:19:17.297Z,13.39
2023-06-04T16:21:43.915Z,13.77
2023-06-04T16:24:10.454Z,13.48
2023-06-04T16:26:37.174Z,13.78
2023-06-04T16:29:03.674Z,14.17
2023-06-04T16:31:30.506Z,13.15
2023-06-04T16:33:57.073Z,13.51
2023-06-04T16:36:23.846Z,13.49
2023-06-04T16:38:50.674Z,13.49
2023-06-04T16:41:17.148Z,12.93
2023-06-04T16:43:43.964Z,13.23
2023-06-04T16:46:10.505Z,12.92
2023-06-04T16:48:39.419Z,12.28
2023-06-04T16:51:06.428Z,12.41
2023-06-04T16:53:33.202Z,13.29
2023-06-04T16:55:59.966Z,12.99
2023-06-04T16:58:26.504Z,13.14
2023-06-04T17:00:53.315Z,13.18
2023-06-04T17:03:20.303Z,14.02
2023-06-04T17:05:47.409Z,13.79
2023-06-04T17:08:14.020Z,14.38
2023-06-04T17:10:40.900Z,14.03
2023-06-04T17:13:07.462Z,14.56
2023-06-04T17:15:34.322Z,14.48
2023-06-04T17:18:07.431Z,13.91
2023-06-04T17:20:34.112Z,14.94
2023-06-04T17:23:01.743Z,14.99
2023-06-04T17:25:29.435Z,15.37
2023-06-04T17:27:56.385Z,16.43
2023-06-04T17:30:25.868Z,16.80
2023-06-04T17:32:52.810Z,17.83
2023-06-04T17:35:19.413Z,17.11
2023-06-04T17:37:46.124Z,17.38
2023-06-04T17:40:13.165Z,17.72
2023-06-04T17:42:41.908Z,18.23
2023-06-04T17:45:10.992Z,18.79
2023-06-04T17:47:37.746Z,18.99
2023-06-04T17:50:07.769Z,19.41
2023-06-04T17:52:35.242Z,20.32
2023-06-04T17:55:02.127Z,19.63
2023-06-04T17:57:30.077Z,20.26
2023-06-04T17:59:57.288Z,20.41
2023-06-04T18:02:23.961Z,20.46
2023-06-04T18:04:53.818Z,21.18
2023-06-04T18:07:21.364Z,21.22
2023-06-04T18:09:48.397Z,20.70
2023-06-04T18:12:15.487Z,21.71
2023-06-04T18:14:43.551Z,21.72
2023-06-04T18:17:10.797Z,21.24
2023-06-04T18:19:37.484Z,21.24
2023-06-04T18:22:04.584Z,21.91
2023-06-04T18:24:31.037Z,22.37
2023-06-04T18:26:59.878Z,22.44
2023-06-04T18:29:26.870Z,22.48
2023-06-04T18:31:53.600Z,22.53
2023-06-04T18:34:23.048Z,22.61
2023-06-04T18:36:57.194Z,23.41
2023-06-04T18:39:24.973Z,23.43
2023-06-04T18:41:56.283Z,23.40
2023-06-04T18:44:23.801Z,23.39
2023-06-04T18:46:51.185Z,23.96
2023-06-04T18:49:18.586Z,23.89
2023-06-04T18:51:45.623Z,24.79
2023-06-04T18:54:12.162Z,24.50
2023-06-04T18:56:39.989Z,25.05
2023-06-04T18:59:06.710Z,25.17
2023-06-04T19:01:33.337Z,25.82
2023-06-04T19:04:00.184Z,26.00
2023-06-04T19:06:27.562Z,26.00
2023-06-04T19:08:54.115Z,26.78
2023-06-04T19:11:22.845Z,26.19
2023-06-04T19:13:49.540Z,27.53
2023-06-04T19:16:16.400Z,27.49
2023-06-04T19:18:43.005Z,28.29
2023-06-04T19:21:09.670Z,28.88
2023-06-04T19:23:36.924Z,29.64
2023-06-04T19:26:03.906Z,30.77
2023-06-04T19:28:30.498Z,30.46
2023-06-04T19:30:57.175Z,30.78
2023-06-04T19:33:24.026Z,31.21
2023-06-04T19:35:51.572Z,31.42
2023-06-04T19:38:18.496Z,32.12
2023-06-04T19:40:46.000Z,32.31
2023-06-04T19:43:12.483Z,32.50
2023-06-04T19:45:38.964Z,31.75
2023-06-04T19:48:05.735Z,31.56
2023-06-04T19:50:32.402Z,31.89
2023-06-04T19:52:58.962Z,32.58
2023-06-04T19:55:25.574Z,32.58
2023-06-04T19:57:52.192Z,32.33
2023-06-04T20:00:18.742Z,32.61
2023-06-04T20:02:45.491Z,31.95
2023-06-04T20:05:12.187Z,31.76
2023-06-04T20:07:38.713Z,32.80
2023-06-04T20:10:06.307Z,32.83
2023-06-04T20:12:32.884Z,33.20
2023-06-04T20:14:59.389Z,32.74
2023-06-04T20:17:26.313Z,33.22
2023-06-04T20:19:54.783Z,33.74
2023-06-04T20:22:21.676Z,34.05
2023-06-04T20:24:48.288Z,34.97
2023-06-04T20:27:18.019Z,35.14
2023-06-04T20:29:45.290Z,35.68
2023-06-04T20:32:11.821Z,35.80
2023-06-04T20:34:38.552Z,35.72
2023-06-04T20:37:05.207Z,36.90
2023-06-04T20:39:32.249Z,37.22
2023-06-04T20:41:58.898Z,37.44
2023-06-04T20:44:25.586Z,37.84
2023-06-04T20:46:52.346Z,37.76
2023-06-04T20:49:19.038Z,38.00
2023-06-04T20:51:45.772Z,38.96
2023-06-04T20:54:12.311Z,39.45
2023-06-04T20:56:38.784Z,39.18
2023-06-04T20:59:05.708Z,39.73
2023-06-04T21:01:32.295Z,40.01
2023-06-04T21:04:01.350Z,40.11
2023-06-04T21:06:28.233Z,39.71
2023-06-04T21:08:54.761Z,40.01
2023-06-04T21:11:21.289Z,40.05
2023-06-04T21:13:47.937Z,40.65
2023-06-04T21:16:14.457Z,40.49
2023-06-04T21:18:40.971Z,39.67
2023-06-04T21:21:07.898Z,40.33
2023-06-04T21:23:34.960Z,40.02
2023-06-04T21:26:01.488Z,40.41
2023-06-04T21:28:28.105Z,40.56
2023-06-04T21:30:55.003Z,40.28
2023-06-04T21:33:21.551Z,40.97
2023-06-04T21:35:48.326Z,40.95
2023-06-04T21:38:14.792Z,40.59
2023-06-04T21:40:41.392Z,40.54
2023-06-04T21:43:07.860Z,40.75
2023-06-04T21:45:34.921Z,41.35
2023-06-04T21:48:01.966Z,41.24
2023-06-04T21:50:28.588Z,41.26
2023-06-04T21:52:55.664Z,41.97
2023-06-04T21:55:22.415Z,41.51
2023-06-04T21:57:48.952Z,41.34
2023-06-04T22:00:16.677Z,41.59
2023-06-04T22:02:43.722Z,41.68
2023-06-04T22:05:10.452Z,41.17
2023-06-04T22:07:37.025Z,41.64
2023-06-04T22:10:04.113Z,41.26
2023-06-04T22:12:30.835Z,41.00
2023-06-04T22:14:57.384Z,41.71
2023-06-04T22:17:23.930Z,40.93
2023-06-04T22:19:51.577Z,40.45
2023-06-04T22:22:18.188Z,40.71
2023-06-04T22:24:44.794Z,41.00
2023-06-04T22:27:11.508Z,40.97
2023-06-04T22:29:38.032Z,40.90
2023-06-04T22:32:04.722Z,40.59
2023-06-04T22:34:31.492Z,40.46
2023-06-04T22:36:58.002Z,40.34
2023-06-04T22:39:24.543Z,40.32
2023-06-04T22:41:51.092Z,39.90
2023-06-04T22:44:17.822Z,39.66
2023-06-04T22:46:44.488Z,39.69
2023-06-04T22:49:12.145Z,39.27
2023-06-04T22:51:39.642Z,39.58
2023-06-04T22:54:06.261Z,39.27
2023-06-04T22:56:32.789Z,38.75
2023-06-04T22:58:59.302Z,38.97
2023-06-04T23:01:26.480Z,38.57
2023-06-04T23:03:53.468Z,38.77
2023-06-04T23:06:20.091Z,38.73
2023-06-04T23:08:46.710Z,38.19
2023-06-04T23:11:13.335Z,38.16
2023-06-04T23:13:39.824Z,38.18
2023-06-04T23:16:06.620Z,37.99
2023-06-04T23:18:33.660Z,37.98
2023-06-04T23:21:00.532Z,37.76
2023-06-04T23:23:27.333Z,37.80
2023-06-04T23:25:54.007Z,37.64
2023-06-04T23:28:20.667Z,37.68
2023-06-04T23:30:47.319Z,37.34
2023-06-04T23:33:13.970Z,37.46
2023-06-04T23:35:40.656Z,37.48
2023-06-04T23:38:07.222Z,37.16
2023-06-04T23:40:33.962Z,37.69
2023-06-04T23:43:00.572Z,37.61
2023-06-04T23:45:27.435Z,37.46
2023-06-04T23:47:53.938Z,37.80
2023-06-04T23:50:20.480Z,37.64
2023-06-04T23:52:47.088Z,37.68
2023-06-04T23:55:13.594Z,37.74
2023-06-04T23:57:40.644Z,38.17
